createdAt,value
2024-04-19T00:00:26.609Z,6.67
2024-04-19T00:02:56.028Z,5.37
2024-04-19T00:05:26.733Z,5.70
2024-04-19T00:07:54.546Z,3.50
2024-04-19T00:10:27.456Z,3.40
2024-04-19T00:12:58.066Z,4.80
2024-04-19T00:15:25.210Z,6.53
2024-04-19T00:17:56.445Z,4.97
2024-04-19T00:20:24.550Z,6.03
2024-04-19T00:22:55.173Z,4.13
2024-04-19T00:25:22.684Z,4.10
2024-04-19T00:27:52.968Z,4.70
2024-04-19T00:30:20.622Z,3.53
2024-04-19T00:33:05.133Z,5.17
2024-04-19T00:35:39.932Z,5.43
2024-04-19T00:38:10.149Z,3.50
2024-04-19T00:40:40.415Z,3.20
2024-04-19T00:43:08.334Z,3.00
2024-04-19T00:45:42.967Z,4.30
2024-04-19T00:48:22.671Z,4.10
2024-04-19T00:50:57.020Z,4.20
2024-04-19T00:53:30.864Z,3.47
2024-04-19T00:56:05.267Z,3.20
2024-04-19T00:58:33.403Z,4.43
2024-04-19T01:01:08.960Z,2.83
2024-04-19T01:03:37.073Z,3.53
2024-04-19T01:06:08.746Z,4.73
2024-04-19T01:08:39.160Z,4.93
2024-04-19T01:11:06.821Z,5.67
2024-04-19T01:13:36.694Z,5.00
2024-04-19T01:16:04.558Z,3.67
2024-04-19T01:18:34.798Z,5.50
2024-04-19T01:21:02.907Z,3.67
2024-04-19T01:23:33.228Z,4.53
2024-04-19T01:26:04.832Z,3.53
2024-04-19T01:28:34.874Z,3.03
2024-04-19T01:31:02.030Z,4.50
2024-04-19T01:33:32.457Z,5.53
2024-04-19T01:36:00.001Z,4.47
2024-04-19T01:38:30.250Z,3.57
2024-04-19T01:40:57.783Z,4.90
2024-04-19T01:43:28.357Z,2.63
2024-04-19T01:45:55.868Z,2.97
2024-04-19T01:48:25.980Z,3.50
2024-04-19T01:50:53.594Z,4.70
2024-04-19T01:53:23.590Z,3.30
2024-04-19T01:55:51.002Z,3.50
2024-04-19T01:58:21.040Z,5.13
2024-04-19T02:00:48.776Z,3.27
2024-04-19T02:03:18.891Z,4.10
2024-04-19T02:05:46.573Z,3.40
2024-04-19T02:08:16.646Z,2.87
2024-04-19T02:10:44.112Z,4.27
2024-04-19T02:13:14.688Z,4.03
2024-04-19T02:15:42.212Z,4.33
2024-04-19T02:18:12.629Z,4.00
2024-04-19T02:20:40.082Z,6.63
2024-04-19T02:23:10.868Z,5.27
2024-04-19T02:25:38.279Z,3.07
2024-04-19T02:28:24.243Z,5.77
2024-04-19T02:31:01.157Z,5.60
2024-04-19T02:33:32.429Z,2.33
2024-04-19T02:36:02.948Z,7.23
2024-04-19T02:38:34.947Z,3.70
2024-04-19T02:41:04.995Z,2.57
2024-04-19T02:43:35.466Z,2.73
2024-04-19T02:46:09.616Z,2.93
2024-04-19T02:48:39.711Z,2.73
2024-04-19T02:51:10.300Z,4.70
2024-04-19T02:53:40.405Z,2.67
2024-04-19T02:56:10.142Z,3.00
2024-04-19T02:58:40.471Z,2.47
2024-04-19T03:01:10.888Z,2.37
2024-04-19T03:03:41.184Z,4.73
2024-04-19T03:06:11.333Z,2.93
2024-04-19T03:08:41.659Z,2.80
2024-04-19T03:11:12.140Z,3.77
2024-04-19T03:13:42.744Z,3.10
2024-04-19T03:16:13.973Z,4.00
2024-04-19T03:18:45.299Z,2.90
2024-04-19T03:21:15.809Z,2.43
2024-04-19T03:23:46.154Z,2.67
2024-04-19T03:26:16.464Z,3.60
2024-04-19T03:28:46.756Z,3.10
2024-04-19T03:31:16.893Z,1.90
2024-04-19T03:33:47.174Z,5.03
2024-04-19T03:36:17.700Z,3.10
2024-04-19T03:38:49.255Z,3.03
2024-04-19T03:41:20.176Z,3.73
2024-04-19T03:44:15.793Z,2.07
2024-04-19T03:46:44.383Z,2.87
2024-04-19T03:49:14.432Z,3.53
2024-04-19T03:51:44.773Z,2.23
2024-04-19T03:54:14.945Z,2.40
2024-04-19T03:56:45.019Z,2.90
2024-04-19T03:59:12.863Z,2.67
2024-04-19T04:01:43.010Z,3.23
2024-04-19T04:04:13.883Z,2.17
2024-04-19T04:06:44.192Z,2.37
2024-04-19T04:09:14.368Z,2.40
2024-04-19T04:11:44.557Z,5.23
2024-04-19T04:14:14.896Z,4.27
2024-04-19T04:16:45.044Z,3.67
2024-04-19T04:19:20.253Z,4.67
2024-04-19T04:21:51.166Z,3.00
2024-04-19T04:24:21.368Z,4.13
2024-04-19T04:26:51.421Z,4.73
2024-04-19T04:29:21.441Z,5.87
2024-04-19T04:31:51.505Z,3.03
2024-04-19T04:34:21.699Z,3.27
2024-04-19T04:36:52.386Z,3.13
2024-04-19T04:39:23.122Z,3.57
2024-04-19T04:41:53.393Z,5.37
2024-04-19T04:44:23.771Z,3.80
2024-04-19T04:47:01.986Z,3.73
2024-04-19T04:49:32.160Z,5.03
2024-04-19T04:52:02.199Z,3.60
2024-04-19T04:54:33.135Z,6.17
2024-04-19T04:57:08.637Z,4.40
2024-04-19T04:59:38.618Z,6.23
2024-04-19T05:02:08.470Z,7.20
2024-04-19T05:04:39.025Z,4.13
2024-04-19T05:07:11.424Z,6.07
2024-04-19T05:09:41.558Z,5.80
2024-04-19T05:12:14.300Z,4.60
2024-04-19T05:14:45.332Z,8.10
2024-04-19T05:17:15.392Z,7.03
2024-04-19T05:19:45.556Z,4.90
2024-04-19T05:22:16.030Z,7.53
2024-04-19T05:24:49.640Z,5.27
2024-04-19T05:27:20.074Z,5.60
2024-04-19T05:29:50.209Z,5.60
2024-04-19T05:32:22.454Z,6.60
2024-04-19T05:34:52.548Z,5.90
2024-04-19T05:37:24.627Z,5.90
2024-04-19T05:39:55.039Z,6.27
2024-04-19T05:42:25.173Z,5.60
2024-04-19T05:44:55.347Z,8.17
2024-04-19T05:47:26.094Z,6.67
2024-04-19T05:49:56.150Z,9.20
2024-04-19T05:52:27.704Z,6.83
2024-04-19T05:54:58.011Z,8.37
2024-04-19T05:57:28.126Z,8.60
2024-04-19T05:59:58.474Z,6.53
2024-04-19T06:02:28.697Z,5.40
2024-04-19T06:04:59.096Z,6.20
2024-04-19T06:07:29.688Z,8.27
2024-04-19T06:09:59.913Z,7.10
2024-04-19T06:12:30.039Z,8.60
2024-04-19T06:15:00.365Z,10.53
2024-04-19T06:17:30.725Z,8.60
2024-04-19T06:20:00.808Z,7.70
2024-04-19T06:22:32.259Z,6.77
2024-04-19T06:25:02.485Z,8.80
2024-04-19T06:27:33.006Z,8.27
2024-04-19T06:30:00.722Z,6.03
2024-04-19T06:32:30.813Z,7.20
2024-04-19T06:35:01.080Z,9.07
2024-04-19T06:37:31.557Z,8.87
2024-04-19T06:40:07.042Z,9.37
2024-04-19T06:42:38.624Z,9.27
2024-04-19T06:45:08.990Z,6.90
2024-04-19T06:47:40.941Z,8.00
2024-04-19T06:50:11.115Z,8.10
2024-04-19T06:52:41.863Z,6.53
2024-04-19T06:55:12.196Z,6.43
2024-04-19T06:57:42.263Z,8.13
2024-04-19T07:00:22.202Z,6.47
2024-04-19T07:03:03.967Z,7.90
2024-04-19T07:05:35.210Z,9.03
2024-04-19T07:08:05.164Z,6.67
2024-04-19T07:10:37.319Z,5.63
2024-04-19T07:13:07.620Z,5.40
2024-04-19T07:15:37.804Z,5.50
2024-04-19T07:18:08.129Z,7.77
2024-04-19T07:20:38.563Z,6.83
2024-04-19T07:23:08.795Z,6.63
2024-04-19T07:25:38.868Z,6.53
2024-04-19T07:28:08.958Z,5.23
2024-04-19T07:30:39.725Z,6.33
2024-04-19T07:33:09.848Z,5.93
2024-04-19T07:35:41.686Z,5.30
2024-04-19T07:38:14.290Z,5.03
2024-04-19T07:40:46.845Z,6.17
2024-04-19T07:43:17.280Z,7.10
2024-04-19T07:45:47.609Z,4.60
2024-04-19T07:48:16.723Z,7.20
2024-04-19T07:50:48.914Z,4.80
2024-04-19T07:53:21.968Z,4.53
2024-04-19T07:55:53.236Z,4.27
2024-04-19T07:58:26.487Z,5.27
2024-04-19T08:00:57.935Z,5.00
2024-04-19T08:03:28.678Z,3.43
2024-04-19T08:06:00.152Z,4.50
2024-04-19T08:08:32.650Z,6.60
2024-04-19T08:11:03.289Z,3.80
2024-04-19T08:13:33.356Z,4.13
2024-04-19T08:16:03.481Z,4.10
2024-04-19T08:18:33.625Z,3.97
2024-04-19T08:21:03.982Z,4.37
2024-04-19T08:23:34.191Z,4.70
2024-04-19T08:26:04.355Z,3.40
2024-04-19T08:28:35.844Z,3.60
2024-04-19T08:31:06.568Z,4.50
2024-04-19T08:33:36.685Z,3.67
2024-04-19T08:36:07.125Z,5.10
2024-04-19T08:38:37.263Z,6.03
2024-04-19T08:41:08.503Z,4.27
2024-04-19T08:43:39.255Z,3.93
2024-04-19T08:46:09.728Z,5.20
2024-04-19T08:48:41.418Z,3.83
2024-04-19T08:51:18.138Z,3.30
2024-04-19T08:53:54.357Z,3.30
2024-04-19T08:56:25.216Z,2.97
2024-04-19T08:58:57.600Z,3.00
2024-04-19T09:01:28.582Z,3.47
2024-04-19T09:03:58.769Z,2.90
2024-04-19T09:06:31.531Z,2.50
2024-04-19T09:09:02.144Z,2.70
2024-04-19T09:11:32.719Z,2.70
2024-04-19T09:14:02.832Z,2.70
2024-04-19T09:16:36.264Z,2.87
2024-04-19T09:19:06.360Z,3.70
2024-04-19T09:21:36.487Z,2.50
2024-04-19T09:24:07.178Z,2.77
2024-04-19T09:26:36.989Z,2.33
2024-04-19T09:29:08.431Z,2.27
2024-04-19T09:31:41.400Z,2.50
2024-04-19T09:34:11.718Z,1.90
2024-04-19T09:36:51.705Z,1.60
2024-04-19T09:39:22.493Z,1.40
2024-04-19T09:41:53.048Z,2.57
2024-04-19T09:44:27.531Z,1.47
2024-04-19T09:47:06.851Z,1.83
2024-04-19T09:49:37.176Z,2.37
2024-04-19T09:52:16.192Z,1.57
2024-04-19T09:54:49.578Z,2.77
2024-04-19T09:57:23.866Z,3.40
2024-04-19T09:59:54.831Z,2.00
2024-04-19T10:02:31.520Z,1.00
2024-04-19T10:05:11.250Z,2.10
2024-04-19T10:07:41.755Z,1.53
2024-04-19T10:10:11.841Z,1.80
2024-04-19T10:12:43.214Z,1.30
2024-04-19T10:15:16.357Z,1.10
2024-04-19T10:17:49.114Z,3.70
2024-04-19T10:20:20.602Z,1.80
2024-04-19T10:22:54.178Z,2.57
2024-04-19T10:25:27.291Z,1.33
2024-04-19T10:28:00.830Z,2.13
2024-04-19T10:30:36.992Z,1.93
2024-04-19T10:33:07.779Z,2.10
2024-04-19T10:35:50.953Z,1.40
2024-04-19T10:38:22.056Z,1.37
2024-04-19T10:40:52.904Z,1.97
2024-04-19T10:43:23.452Z,2.00
2024-04-19T10:45:53.744Z,1.50
2024-04-19T10:48:25.129Z,1.93
2024-04-19T10:50:56.241Z,2.20
2024-04-19T10:53:26.846Z,1.60
2024-04-19T10:55:54.744Z,1.77
2024-04-19T10:58:24.835Z,1.17
2024-04-19T11:00:55.050Z,1.63
2024-04-19T11:03:25.478Z,1.93
2024-04-19T11:05:57.599Z,1.67
2024-04-19T11:08:28.211Z,1.50
2024-04-19T11:10:58.173Z,2.00
2024-04-19T11:13:28.656Z,0.70
2024-04-19T11:16:01.819Z,1.53
2024-04-19T11:18:32.097Z,1.90
2024-04-19T11:21:08.446Z,1.00
2024-04-19T11:23:42.862Z,1.57
2024-04-19T11:26:12.992Z,0.63
2024-04-19T11:28:43.023Z,2.80
2024-04-19T11:31:14.087Z,0.83
2024-04-19T11:33:44.174Z,1.57
2024-04-19T11:36:18.996Z,0.77
2024-04-19T11:38:49.389Z,0.97
2024-04-19T11:41:19.529Z,0.80
2024-04-19T11:43:51.871Z,0.80
2024-04-19T11:46:27.309Z,1.23
2024-04-19T11:48:57.436Z,1.57
2024-04-19T11:51:27.698Z,1.23
2024-04-19T11:53:58.087Z,1.03
2024-04-19T11:56:28.412Z,2.03
2024-04-19T11:58:58.697Z,0.93
2024-04-19T12:01:29.028Z,0.90
2024-04-19T12:03:59.928Z,1.30
2024-04-19T12:06:30.552Z,1.27
2024-04-19T12:09:00.738Z,1.00
2024-04-19T12:11:30.810Z,1.00
2024-04-19T12:14:56.713Z,0.90
2024-04-19T12:16:56.987Z,0.90
2024-04-19T12:19:33.337Z,0.90
2024-04-19T12:22:04.558Z,1.10
2024-04-19T12:24:37.017Z,0.90
2024-04-19T12:27:08.878Z,0.90
2024-04-19T12:29:39.592Z,1.50
2024-04-19T12:32:10.471Z,1.07
2024-04-19T12:34:43.834Z,0.90
2024-04-19T12:37:16.549Z,0.90
2024-04-19T12:39:48.752Z,0.97
2024-04-19T12:42:19.161Z,2.00
2024-04-19T12:44:52.045Z,0.87
2024-04-19T12:47:22.557Z,1.03
2024-04-19T12:49:52.721Z,0.93
2024-04-19T12:52:23.051Z,1.93
2024-04-19T12:54:53.495Z,1.10
2024-04-19T12:57:24.921Z,0.87
2024-04-19T12:59:57.624Z,1.30
2024-04-19T13:02:28.371Z,0.90
2024-04-19T13:04:58.458Z,1.67
2024-04-19T13:07:30.212Z,1.00
2024-04-19T13:10:00.456Z,0.90
2024-04-19T13:12:30.695Z,0.80
2024-04-19T13:15:03.278Z,0.83
2024-04-19T13:17:33.660Z,0.87
2024-04-19T13:20:03.737Z,0.90
2024-04-19T13:22:35.603Z,0.80
2024-04-19T13:25:06.387Z,1.10
2024-04-19T13:27:36.599Z,0.80
2024-04-19T13:30:07.012Z,0.90
2024-04-19T13:32:38.566Z,1.00
2024-04-19T13:35:09.582Z,0.87
2024-04-19T13:37:39.918Z,1.00
2024-04-19T13:40:12.197Z,0.60
2024-04-19T13:42:42.389Z,0.80
2024-04-19T13:45:12.478Z,0.80
2024-04-19T13:47:42.679Z,2.10
2024-04-19T13:50:12.744Z,1.00
2024-04-19T13:52:42.762Z,0.97
2024-04-19T13:55:13.260Z,4.20
2024-04-19T13:57:43.743Z,2.30
2024-04-19T14:00:15.610Z,1.40
2024-04-19T14:02:45.642Z,1.60
2024-04-19T14:05:15.747Z,1.37
2024-04-19T14:07:46.337Z,0.93
2024-04-19T14:10:16.478Z,0.80
2024-04-19T14:12:56.181Z,0.97
2024-04-19T14:15:25.987Z,2.17
2024-04-19T14:17:57.297Z,1.47
2024-04-19T14:20:27.657Z,0.90
2024-04-19T14:22:57.792Z,0.90
2024-04-19T14:25:28.485Z,1.23
2024-04-19T14:27:59.478Z,1.07
2024-04-19T14:30:29.640Z,0.90
2024-04-19T14:32:59.862Z,1.23
2024-04-19T14:35:30.787Z,1.00
2024-04-19T14:38:00.855Z,1.10
2024-04-19T14:40:33.736Z,0.97
2024-04-19T14:43:04.505Z,1.00
2024-04-19T14:45:34.766Z,1.10
2024-04-19T14:48:04.679Z,1.33
2024-04-19T14:50:35.609Z,1.47
2024-04-19T14:53:10.410Z,1.47
2024-04-19T14:55:41.390Z,1.50
2024-04-19T14:58:11.534Z,1.43
2024-04-19T15:00:41.799Z,1.40
2024-04-19T15:03:12.036Z,1.40
2024-04-19T15:05:47.002Z,1.40
2024-04-19T15:08:18.095Z,1.73
2024-04-19T15:10:48.414Z,1.37
2024-04-19T15:13:18.498Z,1.47
2024-04-19T15:15:50.184Z,3.70
2024-04-19T15:18:20.948Z,1.47
2024-04-19T15:20:51.288Z,1.60
2024-04-19T15:23:21.766Z,3.53
2024-04-19T15:25:52.056Z,2.50
2024-04-19T15:28:22.195Z,1.30
2024-04-19T15:30:52.622Z,1.23
2024-04-19T15:33:23.275Z,1.63
2024-04-19T15:35:54.750Z,2.20
2024-04-19T15:38:25.113Z,1.47
2024-04-19T15:40:55.632Z,1.30
2024-04-19T15:43:26.423Z,1.40
2024-04-19T15:45:57.024Z,3.67
2024-04-19T15:48:27.166Z,1.47
2024-04-19T15:50:57.606Z,1.10
2024-04-19T15:53:28.823Z,1.10
2024-04-19T15:55:59.893Z,1.40
2024-04-19T15:58:30.593Z,0.97
2024-04-19T16:01:01.177Z,1.00
2024-04-19T16:03:31.636Z,1.23
2024-04-19T16:06:01.799Z,2.27
2024-04-19T16:08:32.078Z,2.03
2024-04-19T16:11:02.158Z,1.33
2024-04-19T16:13:32.481Z,1.37
2024-04-19T16:16:08.209Z,1.00
2024-04-19T16:18:42.376Z,1.40
2024-04-19T16:21:13.264Z,2.57
2024-04-19T16:23:44.559Z,1.40
2024-04-19T16:26:17.491Z,0.90
2024-04-19T16:28:48.771Z,0.90
2024-04-19T16:31:19.178Z,1.27
2024-04-19T16:33:49.437Z,1.13
2024-04-19T16:36:19.974Z,1.23
2024-04-19T16:38:52.718Z,1.07
2024-04-19T16:41:23.221Z,1.17
2024-04-19T16:43:53.339Z,1.10
2024-04-19T16:46:23.986Z,1.27
2024-04-19T16:48:54.112Z,1.30
2024-04-19T16:51:24.351Z,1.30
2024-04-19T16:53:56.114Z,1.40
2024-04-19T16:56:26.220Z,1.60
2024-04-19T16:58:56.927Z,1.57
2024-04-19T17:01:27.244Z,1.80
2024-04-19T17:03:57.424Z,3.07
2024-04-19T17:06:27.514Z,2.83
2024-04-19T17:08:57.971Z,2.67
2024-04-19T17:11:28.138Z,2.07
2024-04-19T17:13:58.368Z,1.50
2024-04-19T17:16:28.620Z,1.70
2024-04-19T17:18:59.530Z,2.03
2024-04-19T17:21:30.977Z,1.40
2024-04-19T17:24:02.085Z,1.43
2024-04-19T17:26:33.632Z,1.57
2024-04-19T17:29:05.170Z,1.30
2024-04-19T17:31:35.341Z,1.20
2024-04-19T17:34:06.456Z,1.40
2024-04-19T17:36:38.123Z,1.37
2024-04-19T17:39:13.002Z,0.90
2024-04-19T17:41:43.734Z,0.93
2024-04-19T17:44:14.218Z,1.20
2024-04-19T17:46:43.969Z,1.17
2024-04-19T17:49:14.004Z,1.00
2024-04-19T17:51:44.382Z,0.77
2024-04-19T17:54:16.620Z,0.87
2024-04-19T17:56:46.913Z,0.93
2024-04-19T17:59:19.925Z,1.10
2024-04-19T18:01:50.020Z,1.40
2024-04-19T18:04:20.906Z,1.53
2024-04-19T18:06:51.121Z,3.23
2024-04-19T18:09:21.200Z,1.60
2024-04-19T18:11:51.323Z,1.60
2024-04-19T18:14:21.455Z,2.20
2024-04-19T18:16:52.645Z,1.00
2024-04-19T18:19:26.922Z,1.67
2024-04-19T18:21:57.640Z,1.57
2024-04-19T18:24:31.367Z,2.20
2024-04-19T18:27:02.703Z,1.37
2024-04-19T18:29:35.808Z,2.87
2024-04-19T18:32:05.906Z,2.53
2024-04-19T18:34:36.379Z,2.60
2024-04-19T18:37:08.647Z,1.47
2024-04-19T18:39:40.292Z,1.67
2024-04-19T18:42:10.753Z,1.50
2024-04-19T18:47:19.852Z,1.63
2024-04-19T18:49:50.125Z,1.20
2024-04-19T18:52:20.521Z,2.83
2024-04-19T18:54:51.138Z,3.43
2024-04-19T18:57:21.480Z,2.07
2024-04-19T18:59:52.103Z,1.60
2024-04-19T19:02:22.406Z,1.30
2024-04-19T19:04:52.544Z,0.97
2024-04-19T19:07:22.635Z,1.17
2024-04-19T19:09:53.018Z,1.47
2024-04-19T19:12:24.015Z,1.20
2024-04-19T19:14:54.653Z,1.17
2024-04-19T19:17:24.903Z,0.97
2024-04-19T19:19:57.999Z,0.90
2024-04-19T19:22:28.102Z,2.67
2024-04-19T19:24:58.348Z,1.40
2024-04-19T19:27:29.969Z,1.97
2024-04-19T19:30:00.248Z,1.33
2024-04-19T19:32:30.871Z,1.57
2024-04-19T19:35:01.008Z,1.70
2024-04-19T19:37:31.658Z,2.53
2024-04-19T19:40:03.938Z,1.63
2024-04-19T19:42:34.140Z,2.97
2024-04-19T19:45:07.229Z,2.87
2024-04-19T19:47:37.597Z,1.77
2024-04-19T19:50:08.182Z,1.97
2024-04-19T19:52:38.442Z,1.60
2024-04-19T19:55:09.055Z,1.80
2024-04-19T19:57:39.145Z,1.63
2024-04-19T20:00:26.190Z,2.90
2024-04-19T20:03:12.605Z,1.77
2024-04-19T20:05:52.747Z,2.27
2024-04-19T20:08:22.782Z,1.70
2024-04-19T20:10:52.990Z,2.00
2024-04-19T20:13:23.122Z,1.70
2024-04-19T20:15:56.789Z,1.90
2024-04-19T20:18:27.517Z,1.30
2024-04-19T20:20:57.681Z,1.50
2024-04-19T20:23:27.715Z,1.40
2024-04-19T20:25:57.760Z,1.47
2024-04-19T20:28:28.302Z,2.73
2024-04-19T20:30:57.994Z,1.60
2024-04-19T20:33:28.452Z,2.10
2024-04-19T20:35:58.789Z,1.87
2024-04-19T20:38:30.506Z,1.80
2024-04-19T20:41:00.778Z,1.77
2024-04-19T20:43:30.907Z,4.17
2024-04-19T20:46:02.891Z,3.73
2024-04-19T20:48:33.132Z,1.60
2024-04-19T20:51:03.207Z,2.43
2024-04-19T20:53:33.607Z,3.70
2024-04-19T20:56:04.503Z,2.53
2024-04-19T20:58:34.573Z,2.20
2024-04-19T21:01:15.547Z,2.00
2024-04-19T21:03:47.557Z,3.10
2024-04-19T21:06:18.605Z,2.63
2024-04-19T21:08:48.705Z,4.30
2024-04-19T21:11:18.410Z,2.13
2024-04-19T21:13:48.457Z,4.80
2024-04-19T21:16:18.854Z,2.43
2024-04-19T21:18:46.756Z,4.20
2024-04-19T21:21:20.097Z,3.20
2024-04-19T21:23:53.489Z,2.47
2024-04-19T21:26:23.932Z,2.60
2024-04-19T21:28:56.002Z,3.97
2024-04-19T21:31:26.292Z,2.90
2024-04-19T21:33:56.730Z,4.93
2024-04-19T21:36:30.756Z,5.53
2024-04-19T21:39:01.197Z,5.80
2024-04-19T21:41:31.520Z,4.07
2024-04-19T21:44:02.072Z,4.10
2024-04-19T21:46:32.234Z,5.53
2024-04-19T21:49:03.043Z,3.50
2024-04-19T21:51:33.525Z,4.83
2024-04-19T21:54:03.758Z,4.70
2024-04-19T21:56:34.118Z,2.80
2024-04-19T21:59:05.680Z,1.87
2024-04-19T22:01:39.230Z,2.83
2024-04-19T22:04:10.248Z,3.13
2024-04-19T22:06:40.433Z,4.00
2024-04-19T22:09:10.841Z,2.60
2024-04-19T22:11:41.096Z,2.87
2024-04-19T22:14:11.128Z,2.50
2024-04-19T22:16:42.136Z,3.20
2024-04-19T22:19:12.553Z,2.07
2024-04-19T22:21:42.884Z,2.97
2024-04-19T22:24:13.439Z,2.37
2024-04-19T22:26:43.870Z,2.70
2024-04-19T22:29:14.473Z,3.67
2024-04-19T22:31:44.940Z,2.20
2024-04-19T22:34:14.983Z,2.47
2024-04-19T22:36:45.084Z,5.00
2024-04-19T22:39:15.268Z,2.57
2024-04-19T22:41:45.672Z,3.27
2024-04-19T22:44:17.063Z,3.00
2024-04-19T22:46:47.122Z,4.07
2024-04-19T22:49:17.996Z,3.00
2024-04-19T22:51:48.480Z,3.80
2024-04-19T22:54:18.598Z,3.73
2024-04-19T22:56:50.125Z,2.57
2024-04-19T22:59:20.556Z,1.83
2024-04-19T23:01:51.228Z,5.47
2024-04-19T23:04:23.009Z,2.90
2024-04-19T23:06:53.312Z,3.70
2024-04-19T23:09:23.313Z,2.20
2024-04-19T23:11:53.621Z,1.87
2024-04-19T23:14:23.668Z,1.90
2024-04-19T23:16:55.480Z,4.40
2024-04-19T23:19:25.526Z,5.07
2024-04-19T23:21:58.255Z,2.83
2024-04-19T23:24:28.330Z,2.30
2024-04-19T23:26:59.627Z,3.73
2024-04-19T23:29:29.371Z,1.93
2024-04-19T23:31:59.534Z,4.43
2024-04-19T23:34:29.753Z,3.40
2024-04-19T23:36:59.893Z,1.87
2024-04-19T23:39:29.996Z,3.13
2024-04-19T23:42:00.389Z,3.13
2024-04-19T23:44:30.877Z,2.37
2024-04-19T23:47:04.888Z,2.03
2024-04-19T23:49:35.679Z,3.07
2024-04-19T23:52:05.840Z,4.37
2024-04-19T23:54:36.062Z,1.80
2024-04-19T23:57:06.356Z,4.57
2024-04-19T23:59:36.356Z,2.00
